Golden Triangle Regional Airport Columbus, W Point, Starkville US
ICAO: KGTR
IATA: GTR
Category: Medium
Scheduled Services: Yes

Elevation: 264 ft
TransAlt. 18000 ft.

Airport Communications:
COLUMBUS APP/DEP:135.6
ATIS:126.375
AWOS 3:126.375
COLUMBUS CLNC DEL:126.25
CTAF:120.025
GND/CLNC DEL:135.375
TWR:120.025
UNICOM:122.8

KGTR Zoom In..

Runways:

(A) RW 18 length 8003 ft width 150 ft
ILS 110.70 / hdg 182

(B) RW 36 length 8003 ft width 150 ft
ILS 111.15 / hdg 2

Location; KGTR
Day. 21 / Time. 23.56 Zulu
* Altimeter: 30.07
* Temperature: 17° c. 62.6°f.
* Wind from: 160° Speed 08 kn.
Dewpoint: 08° c.
Visibility: 10 Statute Miles.
Clouds: Clear (automated report).

KGTR 212356Z 16008KT 10SM CLR 17/08 A3007 RMK AO2 SLP186 T01720078 10222 20172 53001


Wind From 160°
Speed 08 kn.

jpsM music video
CHECK IT OUT

jpsM - It Moves..

 
jpsmedia.com for Web Design  worldairports.se 2018   terms of use